createdAt,value
2019-04-22T00:00:12.672Z,5.00
2019-04-22T00:02:49.023Z,5.23
2019-04-22T00:05:19.315Z,4.97
2019-04-22T00:08:03.842Z,4.50
2019-04-22T00:10:39.221Z,5.00
2019-04-22T00:13:08.623Z,4.70
2019-04-22T00:15:27.206Z,6.10
2019-04-22T00:18:07.437Z,6.10
2019-04-22T00:20:36.774Z,4.23
2019-04-22T00:23:03.758Z,6.67
2019-04-22T00:25:34.824Z,5.30
2019-04-22T00:28:04.964Z,5.50
2019-04-22T00:30:34.186Z,4.90
2019-04-22T00:33:14.209Z,4.87
2019-04-22T00:35:52.593Z,4.67
2019-04-22T00:40:46.384Z,5.40
2019-04-22T00:43:19.668Z,5.60
2019-04-22T00:45:45.940Z,4.90
2019-04-22T00:48:20.647Z,5.20
2019-04-22T00:50:46.325Z,5.63
2019-04-22T00:53:16.265Z,4.93
2019-04-22T00:56:23.136Z,6.37
2019-04-22T00:58:40.742Z,5.80
2019-04-22T01:01:17.379Z,5.70
2019-04-22T01:03:44.450Z,6.83
2019-04-22T01:06:13.119Z,6.40
2019-04-22T01:08:48.147Z,6.43
2019-04-22T01:11:14.759Z,5.70
2019-04-22T01:13:42.482Z,5.40
2019-04-22T01:16:11.260Z,4.97
2019-04-22T01:18:36.211Z,5.23
2019-04-22T01:23:34.673Z,4.70
2019-04-22T01:26:01.081Z,6.13
2019-04-22T01:28:30.146Z,5.63
2019-04-22T01:30:53.412Z,5.40
2019-04-22T01:33:21.807Z,4.63
2019-04-22T01:36:05.682Z,5.00
2019-04-22T01:38:31.358Z,5.90
2019-04-22T01:41:12.991Z,4.90
2019-04-22T01:43:40.944Z,5.93
2019-04-22T01:46:08.451Z,4.90
2019-04-22T01:48:39.421Z,5.10
2019-04-22T01:51:02.367Z,5.10
2019-04-22T01:53:33.491Z,6.27
2019-04-22T01:56:06.675Z,5.90
2019-04-22T01:58:28.995Z,5.97
2019-04-22T02:00:59.744Z,5.60
2019-04-22T02:03:34.712Z,5.80
2019-04-22T02:06:10.141Z,5.03
2019-04-22T02:08:38.097Z,5.70
2019-04-22T02:11:04.321Z,5.20
2019-04-22T02:13:38.182Z,5.47
2019-04-22T02:16:07.237Z,5.77
2019-04-22T02:18:41.995Z,5.97
2019-04-22T02:21:01.731Z,5.30
2019-04-22T02:34:05.424Z,6.30
2019-04-22T02:44:04.089Z,5.90
2019-04-22T02:46:23.305Z,5.07
2019-04-22T02:48:55.335Z,5.20
2019-04-22T02:51:12.688Z,5.93
2019-04-22T02:54:15.115Z,5.97
2019-04-22T02:58:55.036Z,5.63
2019-04-22T03:01:13.578Z,6.00
2019-04-22T03:03:58.711Z,5.93
2019-04-22T03:06:16.524Z,5.07
2019-04-22T03:08:41.925Z,5.47
2019-04-22T03:11:13.481Z,5.50
2019-04-22T03:18:55.269Z,5.10
2019-04-22T03:21:07.423Z,5.20
2019-04-22T03:28:47.739Z,5.30
2019-04-22T03:32:18.063Z,5.60
2019-04-22T03:35:13.347Z,4.87
2019-04-22T03:37:10.855Z,5.90
2019-04-22T03:39:38.065Z,5.10
2019-04-22T03:44:31.065Z,5.33
2019-04-22T03:49:29.184Z,6.03
2019-04-22T03:52:02.888Z,4.97
2019-04-22T03:54:29.085Z,5.30
2019-04-22T03:57:18.442Z,5.13
2019-04-22T03:59:26.885Z,5.30
2019-04-22T04:02:01.963Z,5.07
2019-04-22T04:04:24.288Z,5.17
2019-04-22T04:07:06.043Z,5.53
2019-04-22T04:14:33.446Z,5.93
2019-04-22T04:17:02.255Z,5.53
2019-04-22T04:19:28.192Z,5.43
2019-04-22T04:29:36.260Z,5.17
2019-04-22T04:37:18.620Z,5.70
2019-04-22T04:39:26.470Z,5.67
2019-04-22T04:44:35.143Z,5.30
2019-04-22T04:49:19.208Z,6.07
2019-04-22T04:54:31.370Z,6.00
2019-04-22T04:56:50.925Z,5.27
2019-04-22T04:59:39.324Z,5.87
2019-04-22T05:04:31.737Z,4.60
2019-04-22T05:07:01.568Z,13.83
2019-04-22T05:12:03.655Z,5.93
2019-04-22T05:16:48.934Z,5.83
2019-04-22T05:21:50.632Z,5.50
2019-04-22T05:24:16.542Z,4.97
2019-04-22T05:31:51.780Z,5.07
2019-04-22T05:34:21.493Z,5.20
2019-04-22T05:39:17.159Z,4.87
2019-04-22T05:41:48.653Z,4.70
2019-04-22T05:46:49.819Z,5.27
2019-04-22T05:49:18.868Z,5.17
2019-04-22T05:51:48.523Z,5.93
2019-04-22T05:54:22.914Z,5.17
2019-04-22T05:57:04.086Z,5.33
2019-04-22T05:59:22.832Z,5.73
2019-04-22T06:02:01.330Z,6.03
2019-04-22T06:04:22.686Z,5.60
2019-04-22T06:06:54.158Z,6.20
2019-04-22T06:09:26.047Z,7.03
2019-04-22T06:11:51.930Z,6.93
2019-04-22T06:14:24.900Z,7.00
2019-04-22T06:16:57.158Z,5.07
2019-04-22T06:19:27.900Z,6.13
2019-04-22T06:21:58.002Z,6.00
2019-04-22T06:24:28.042Z,6.03
2019-04-22T06:27:10.275Z,5.83
2019-04-22T06:29:27.101Z,5.73
2019-04-22T06:32:17.658Z,5.27
2019-04-22T06:34:28.754Z,8.33
2019-04-22T06:37:12.846Z,6.45
2019-04-22T06:39:36.907Z,5.90
2019-04-22T06:42:13.379Z,5.73
2019-04-22T06:44:45.697Z,5.60
2019-04-22T06:47:21.093Z,5.00
2019-04-22T06:49:42.169Z,5.10
2019-04-22T06:52:16.967Z,5.20
2019-04-22T06:54:40.646Z,5.53
2019-04-22T06:57:06.168Z,5.73
2019-04-22T06:59:38.905Z,5.90
2019-04-22T07:02:14.909Z,5.20
2019-04-22T07:04:34.837Z,5.50
2019-04-22T07:07:08.304Z,5.80
2019-04-22T07:09:42.838Z,4.70
2019-04-22T07:12:06.449Z,5.17
2019-04-22T07:14:37.118Z,5.90
2019-04-22T07:17:02.240Z,5.00
2019-04-22T07:19:36.057Z,4.20
2019-04-22T07:22:09.755Z,4.90
2019-04-22T07:27:10.565Z,3.57
2019-04-22T07:29:39.084Z,4.13
2019-04-22T07:32:07.872Z,4.10
2019-04-22T07:37:23.083Z,4.27
2019-04-22T07:39:35.256Z,4.37
2019-04-22T07:42:06.596Z,3.57
2019-04-22T07:44:38.528Z,4.10
2019-04-22T07:47:04.601Z,3.67
2019-04-22T07:52:09.911Z,4.70
2019-04-22T07:54:43.055Z,4.23
2019-04-22T07:59:43.657Z,4.30
2019-04-22T08:02:12.787Z,4.13
2019-04-22T08:05:01.978Z,4.13
2019-04-22T08:07:27.107Z,4.03
2019-04-22T08:10:08.756Z,4.47
2019-04-22T08:12:34.930Z,3.80
2019-04-22T08:15:00.344Z,5.33
2019-04-22T08:22:21.149Z,5.50
2019-04-22T08:25:10.127Z,6.07
2019-04-22T08:27:42.849Z,7.50
2019-04-22T08:35:41.003Z,3.87
2019-04-22T08:37:57.707Z,4.53
2019-04-22T08:40:40.369Z,4.27
2019-04-22T08:45:38.537Z,3.43
2019-04-22T08:48:00.999Z,4.20
2019-04-22T08:50:45.280Z,4.00
2019-04-22T08:53:39.851Z,3.50
2019-04-22T08:56:21.890Z,3.90
2019-04-22T08:58:35.035Z,4.33
2019-04-22T09:01:17.682Z,3.90
2019-04-22T09:03:31.829Z,3.30
2019-04-22T09:06:15.721Z,3.40
2019-04-22T09:08:33.827Z,3.50
2019-04-22T09:11:10.653Z,3.60
2019-04-22T09:13:44.909Z,3.50
2019-04-22T09:16:12.391Z,3.30
2019-04-22T09:18:44.978Z,3.40
2019-04-22T09:23:44.121Z,4.00
2019-04-22T09:26:09.567Z,4.30
2019-04-22T09:28:45.694Z,2.80
2019-04-22T09:31:42.340Z,3.33
2019-04-22T09:34:14.284Z,3.83
2019-04-22T09:37:04.737Z,2.97
2019-04-22T09:39:21.839Z,4.30
2019-04-22T09:41:59.426Z,2.80
2019-04-22T09:44:36.591Z,3.53
2019-04-22T09:47:06.179Z,3.33
2019-04-22T09:49:44.552Z,3.97
2019-04-22T09:52:08.031Z,3.27
2019-04-22T09:54:51.041Z,3.80
2019-04-22T09:57:15.534Z,3.30
2019-04-22T09:59:57.893Z,3.80
2019-04-22T10:02:38.980Z,3.60
2019-04-22T10:08:24.395Z,3.47
2019-04-22T10:10:45.828Z,3.30
2019-04-22T10:13:23.625Z,4.20
2019-04-22T10:15:40.970Z,3.70
2019-04-22T10:18:12.794Z,3.30
2019-04-22T10:20:47.690Z,3.40
2019-04-22T10:23:15.390Z,4.00
2019-04-22T10:25:49.874Z,3.50
2019-04-22T10:28:15.123Z,3.50
2019-04-22T10:33:22.402Z,3.20
2019-04-22T10:35:35.157Z,3.10
2019-04-22T10:38:03.936Z,3.90
2019-04-22T10:40:40.777Z,5.20
2019-04-22T10:43:12.816Z,3.60
2019-04-22T10:45:41.931Z,2.97
2019-04-22T10:48:10.522Z,3.70
2019-04-22T10:50:43.758Z,3.17
2019-04-22T10:53:15.421Z,3.73
2019-04-22T10:55:46.872Z,2.70
2019-04-22T10:58:14.996Z,3.20
2019-04-22T11:00:43.081Z,3.57
2019-04-22T11:03:14.032Z,2.97
2019-04-22T11:05:42.491Z,4.00
2019-04-22T11:08:20.352Z,3.47
2019-04-22T11:10:56.439Z,3.13
2019-04-22T11:13:10.869Z,3.47
2019-04-22T11:15:42.393Z,3.03
2019-04-22T11:18:11.502Z,3.30
2019-04-22T11:20:39.773Z,3.50
2019-04-22T11:23:08.835Z,3.47
2019-04-22T11:25:36.554Z,3.70
2019-04-22T11:28:05.561Z,3.30
2019-04-22T11:30:34.380Z,4.03
2019-04-22T11:33:02.643Z,3.50
2019-04-22T11:35:31.943Z,3.50
2019-04-22T11:38:00.993Z,3.87
2019-04-22T11:40:34.899Z,3.70
2019-04-22T11:43:08.038Z,3.87
2019-04-22T11:45:37.092Z,4.70
2019-04-22T11:48:09.143Z,3.70
2019-04-22T11:50:37.636Z,3.70
2019-04-22T11:53:06.960Z,3.57
2019-04-22T11:55:35.043Z,3.40
2019-04-22T11:58:03.154Z,3.93
2019-04-22T12:00:36.762Z,4.00
2019-04-22T12:03:05.295Z,3.67
2019-04-22T12:05:34.339Z,3.53
2019-04-22T12:08:07.075Z,3.53
2019-04-22T12:10:41.127Z,3.57
2019-04-22T12:13:06.003Z,4.23
2019-04-22T12:15:35.074Z,3.67
2019-04-22T12:18:03.712Z,3.00
2019-04-22T12:20:32.717Z,3.77
2019-04-22T12:23:01.131Z,4.03
2019-04-22T12:25:41.092Z,3.93
2019-04-22T12:27:59.122Z,4.10
2019-04-22T12:30:27.914Z,3.73
2019-04-22T12:32:55.730Z,4.80
2019-04-22T12:35:24.340Z,5.53
2019-04-22T12:37:57.747Z,3.20
2019-04-22T12:40:33.766Z,3.57
2019-04-22T12:42:51.450Z,3.53
2019-04-22T12:45:22.511Z,3.10
2019-04-22T12:47:50.531Z,3.50
2019-04-22T12:50:26.057Z,3.43
2019-04-22T12:52:55.578Z,3.00
2019-04-22T12:55:19.583Z,3.77
2019-04-22T12:57:48.578Z,3.50
2019-04-22T13:00:17.737Z,2.97
2019-04-22T13:02:47.332Z,4.10
2019-04-22T13:05:16.293Z,3.00
2019-04-22T13:07:44.212Z,3.50
2019-04-22T13:10:13.816Z,2.90
2019-04-22T13:12:42.870Z,3.30
2019-04-22T13:15:14.103Z,3.43
2019-04-22T13:17:42.181Z,3.60
2019-04-22T13:20:14.173Z,3.70
2019-04-22T13:22:40.994Z,3.53
2019-04-22T13:25:12.429Z,3.37
2019-04-22T13:27:40.628Z,3.30
2019-04-22T13:30:12.460Z,3.33
2019-04-22T13:32:40.686Z,3.27
2019-04-22T13:35:10.814Z,2.80
2019-04-22T13:37:39.012Z,3.57
2019-04-22T13:40:10.935Z,3.40
2019-04-22T13:42:38.770Z,3.60
2019-04-22T13:45:09.547Z,3.80
2019-04-22T13:47:56.248Z,3.77
2019-04-22T13:50:47.633Z,3.20
2019-04-22T13:55:41.983Z,3.90
2019-04-22T13:57:53.343Z,3.43
2019-04-22T14:00:22.553Z,3.20
2019-04-22T14:03:08.934Z,3.07
2019-04-22T14:05:40.557Z,2.93
2019-04-22T14:08:10.733Z,3.50
2019-04-22T14:10:40.590Z,3.40
2019-04-22T14:13:09.829Z,3.30
2019-04-22T14:15:38.152Z,2.83
2019-04-22T14:18:07.260Z,3.10
2019-04-22T14:20:38.568Z,3.43
2019-04-22T14:23:12.459Z,2.80
2019-04-22T14:25:41.186Z,2.90
2019-04-22T14:28:13.688Z,3.07
2019-04-22T14:30:38.805Z,3.03
2019-04-22T14:33:07.826Z,3.20
2019-04-22T14:35:43.577Z,1.87
2019-04-22T14:38:12.278Z,3.30
2019-04-22T14:40:41.445Z,2.80
2019-04-22T14:43:31.612Z,2.60
2019-04-22T14:46:10.949Z,2.90
2019-04-22T14:48:35.720Z,2.63
2019-04-22T14:50:59.132Z,2.83
2019-04-22T14:53:29.052Z,3.03
2019-04-22T14:55:38.432Z,3.40
2019-04-22T14:58:06.891Z,3.33
2019-04-22T15:00:35.857Z,2.70
2019-04-22T15:03:03.933Z,2.40
2019-04-22T15:05:32.590Z,3.10
2019-04-22T15:08:01.298Z,3.40
2019-04-22T15:10:29.075Z,2.97
2019-04-22T15:12:59.126Z,4.00
2019-04-22T15:15:51.147Z,2.67
2019-04-22T15:18:31.639Z,3.63
2019-04-22T15:21:03.021Z,2.60
2019-04-22T15:23:32.968Z,3.23
2019-04-22T15:26:02.159Z,3.27
2019-04-22T15:28:31.288Z,2.60
2019-04-22T15:31:01.499Z,3.17
2019-04-22T15:33:29.611Z,2.93
2019-04-22T15:35:58.997Z,3.67
2019-04-22T15:38:28.263Z,3.33
2019-04-22T15:40:56.684Z,3.07
2019-04-22T15:43:27.958Z,2.40
2019-04-22T15:45:54.877Z,3.07
2019-04-22T15:48:23.291Z,2.77
2019-04-22T15:50:50.834Z,3.10
2019-04-22T15:53:19.941Z,2.80
2019-04-22T15:55:47.540Z,2.70
2019-04-22T15:58:15.486Z,2.57
2019-04-22T16:00:54.081Z,3.03
2019-04-22T16:03:12.643Z,3.17
2019-04-22T16:05:40.180Z,2.50
2019-04-22T16:08:08.858Z,2.20
2019-04-22T16:10:37.778Z,2.47
2019-04-22T16:13:28.720Z,3.00
2019-04-22T16:15:54.739Z,3.57
2019-04-22T16:18:26.315Z,3.33
2019-04-22T16:20:54.416Z,2.40
2019-04-22T16:23:33.997Z,2.87
2019-04-22T16:26:11.774Z,3.07
2019-04-22T16:28:39.753Z,2.83
2019-04-22T16:31:07.390Z,3.23
2019-04-22T16:33:39.341Z,3.00
2019-04-22T16:36:04.837Z,3.13
2019-04-22T16:38:33.023Z,3.10
2019-04-22T16:41:01.031Z,3.80
2019-04-22T16:43:28.973Z,3.10
2019-04-22T16:45:57.858Z,3.20
2019-04-22T16:48:27.780Z,2.67
2019-04-22T16:50:56.479Z,2.53
2019-04-22T16:53:25.307Z,2.90
2019-04-22T16:55:53.325Z,2.50
2019-04-22T16:58:20.945Z,2.70
2019-04-22T17:00:49.618Z,3.00
2019-04-22T17:03:40.608Z,2.70
2019-04-22T17:06:13.862Z,2.50
2019-04-22T17:08:42.733Z,2.60
2019-04-22T17:11:22.980Z,2.67
2019-04-22T17:13:50.667Z,2.70
2019-04-22T17:16:19.786Z,2.90
2019-04-22T17:18:47.656Z,2.70
2019-04-22T17:21:15.342Z,2.67
2019-04-22T17:23:43.433Z,2.70
2019-04-22T17:26:12.584Z,3.80
2019-04-22T17:28:41.421Z,3.20
2019-04-22T17:31:10.871Z,3.17
2019-04-22T17:33:39.369Z,3.20
2019-04-22T17:36:09.021Z,3.17
2019-04-22T17:38:46.788Z,2.53
2019-04-22T17:41:20.757Z,2.97
2019-04-22T17:44:02.130Z,3.00
2019-04-22T17:46:33.618Z,3.00
2019-04-22T17:49:23.947Z,2.80
2019-04-22T17:52:06.226Z,2.90
2019-04-22T17:54:32.290Z,3.37
2019-04-22T17:57:08.163Z,2.97
2019-04-22T17:59:35.875Z,3.43
2019-04-22T18:01:56.881Z,3.33
2019-04-22T18:04:12.370Z,2.60
2019-04-22T18:07:02.134Z,3.70
2019-04-22T18:10:06.677Z,2.30
2019-04-22T18:12:07.390Z,2.60
2019-04-22T18:17:07.037Z,2.80
2019-04-22T18:19:36.367Z,2.30
2019-04-22T18:22:00.901Z,2.50
2019-04-22T18:24:24.256Z,2.90
2019-04-22T18:27:07.426Z,2.70
2019-04-22T18:29:34.437Z,2.50
2019-04-22T18:31:55.672Z,2.60
2019-04-22T18:34:25.625Z,3.07
2019-04-22T18:36:59.069Z,2.20
2019-04-22T18:39:42.346Z,3.17
2019-04-22T18:42:03.429Z,2.40
2019-04-22T18:44:36.464Z,2.73
2019-04-22T18:47:03.692Z,2.73
2019-04-22T18:49:40.592Z,2.73
2019-04-22T18:52:35.578Z,2.67
2019-04-22T18:55:12.912Z,2.90
2019-04-22T18:57:59.101Z,3.37
2019-04-22T19:00:16.551Z,3.80
2019-04-22T19:02:54.016Z,3.43
2019-04-22T19:05:26.286Z,3.80
2019-04-22T19:08:13.726Z,3.77
2019-04-22T19:10:43.059Z,3.07
2019-04-22T19:13:34.832Z,3.90
2019-04-22T19:15:36.366Z,3.17
2019-04-22T19:18:17.767Z,3.37
2019-04-22T19:20:49.817Z,2.83
2019-04-22T19:23:12.907Z,2.50
2019-04-22T19:25:33.300Z,2.80
2019-04-22T19:28:17.809Z,3.10
2019-04-22T19:30:41.537Z,2.50
2019-04-22T19:33:12.024Z,3.17
2019-04-22T19:35:36.972Z,3.40
2019-04-22T19:38:00.088Z,3.50
2019-04-22T19:40:50.564Z,3.70
2019-04-22T19:43:20.489Z,3.53
2019-04-22T19:45:44.235Z,3.47
2019-04-22T19:48:25.503Z,3.00
2019-04-22T19:50:45.070Z,3.57
2019-04-22T19:53:18.904Z,3.43
2019-04-22T19:55:45.031Z,3.47
2019-04-22T19:58:15.183Z,3.60
2019-04-22T20:01:02.356Z,3.90
2019-04-22T20:04:16.488Z,3.50
2019-04-22T20:06:47.872Z,3.20
2019-04-22T20:09:19.390Z,3.77
2019-04-22T20:11:55.145Z,3.63
2019-04-22T20:14:37.377Z,3.60
2019-04-22T20:16:43.819Z,3.73
2019-04-22T20:19:25.357Z,2.87
2019-04-22T20:21:50.098Z,3.57
2019-04-22T20:24:06.750Z,3.90
2019-04-22T20:27:05.645Z,3.00
2019-04-22T20:29:37.843Z,3.37
2019-04-22T20:32:05.334Z,3.20
2019-04-22T20:34:38.142Z,3.10
2019-04-22T20:37:10.420Z,3.07
2019-04-22T20:39:45.643Z,2.90
2019-04-22T20:42:26.649Z,2.33
2019-04-22T20:44:47.339Z,2.83
2019-04-22T20:47:09.011Z,2.27
2019-04-22T20:49:41.620Z,2.40
2019-04-22T20:52:22.317Z,2.10
2019-04-22T20:54:41.494Z,2.73
2019-04-22T20:57:09.813Z,2.67
2019-04-22T20:59:38.964Z,2.73
2019-04-22T21:02:10.682Z,2.50
2019-04-22T21:04:35.837Z,2.43
2019-04-22T21:07:10.990Z,2.70
2019-04-22T21:09:42.680Z,2.83
2019-04-22T21:12:09.080Z,2.57
2019-04-22T21:14:52.877Z,3.37
2019-04-22T21:17:15.611Z,1.97
2019-04-22T21:19:51.742Z,3.00
2019-04-22T21:22:18.155Z,2.40
2019-04-22T21:24:41.876Z,2.20
2019-04-22T21:27:14.065Z,2.37
2019-04-22T21:29:36.038Z,2.70
2019-04-22T21:32:09.075Z,2.57
2019-04-22T21:34:44.003Z,2.70
2019-04-22T21:37:16.014Z,2.27
2019-04-22T21:39:36.631Z,3.30
2019-04-22T21:42:06.322Z,2.00
2019-04-22T21:44:33.994Z,2.60
2019-04-22T21:47:12.917Z,2.33
2019-04-22T21:49:35.667Z,2.07
2019-04-22T21:52:11.627Z,2.50
2019-04-22T21:54:39.245Z,2.60
2019-04-22T21:57:19.328Z,2.43
2019-04-22T21:59:44.851Z,3.20
2019-04-22T22:02:25.610Z,2.37
2019-04-22T22:04:44.113Z,2.43
2019-04-22T22:07:05.695Z,3.20
2019-04-22T22:09:52.425Z,2.53
2019-04-22T22:12:11.908Z,2.33
2019-04-22T22:14:47.813Z,2.70
2019-04-22T22:17:15.826Z,2.63
2019-04-22T22:19:44.423Z,2.90
2019-04-22T22:22:29.833Z,2.93
2019-04-22T22:24:43.648Z,2.90
2019-04-22T22:27:14.556Z,2.40
2019-04-22T22:30:16.448Z,2.90
2019-04-22T22:32:13.317Z,2.90
2019-04-22T22:34:43.472Z,3.10
2019-04-22T22:37:01.570Z,3.00
2019-04-22T22:39:32.064Z,2.83
2019-04-22T22:41:49.899Z,3.00
2019-04-22T22:44:26.197Z,2.57
2019-04-22T22:47:03.549Z,2.90
2019-04-22T22:49:40.585Z,2.63
2019-04-22T22:52:34.431Z,3.50
2019-04-22T22:54:34.119Z,2.27
2019-04-22T22:57:08.734Z,3.17
2019-04-22T22:59:33.131Z,3.73
2019-04-22T23:02:04.950Z,4.13
2019-04-22T23:07:00.398Z,3.57
2019-04-22T23:09:30.761Z,3.40
2019-04-22T23:14:34.500Z,2.90
2019-04-22T23:16:49.347Z,3.40
2019-04-22T23:19:09.479Z,3.00
2019-04-22T23:21:44.033Z,2.77
2019-04-22T23:24:29.814Z,3.23
2019-04-22T23:27:11.671Z,2.57
2019-04-22T23:29:55.581Z,3.00
2019-04-22T23:32:26.928Z,3.90
2019-04-22T23:35:08.014Z,3.27
2019-04-22T23:37:44.109Z,3.37
2019-04-22T23:40:15.810Z,3.03
2019-04-22T23:42:32.675Z,3.10
2019-04-22T23:45:10.811Z,2.70
2019-04-22T23:47:39.118Z,2.80
2019-04-22T23:50:16.259Z,3.43
2019-04-22T23:53:00.641Z,2.90
2019-04-22T23:55:33.849Z,3.47
2019-04-22T23:58:19.066Z,3.07
